createdAt,value
2018-02-14T00:00:04.395Z,6.07
2018-02-14T00:01:06.895Z,5.85
2018-02-14T00:02:09.444Z,5.45
2018-02-14T00:03:11.944Z,5.60
2018-02-14T00:04:14.452Z,5.90
2018-02-14T00:05:16.956Z,6.10
2018-02-14T00:06:19.457Z,5.72
2018-02-14T00:07:21.975Z,5.60
2018-02-14T00:08:25.231Z,5.65
2018-02-14T00:09:27.767Z,5.82
2018-02-14T00:10:30.265Z,5.03
2018-02-14T00:11:32.753Z,5.95
2018-02-14T00:12:35.367Z,5.20
2018-02-14T00:13:38.619Z,6.00
2018-02-14T00:14:41.174Z,5.72
2018-02-14T00:15:43.683Z,5.85
2018-02-14T00:16:46.197Z,5.60
2018-02-14T00:17:48.710Z,5.50
2018-02-14T00:18:52.006Z,5.43
2018-02-14T00:19:54.549Z,5.72
2018-02-14T00:20:57.176Z,5.95
2018-02-14T00:22:00.430Z,5.93
2018-02-14T00:23:02.967Z,5.90
2018-02-14T00:24:05.476Z,6.25
2018-02-14T00:25:07.980Z,5.85
2018-02-14T00:26:11.242Z,6.03
2018-02-14T00:27:13.736Z,5.78
2018-02-14T00:28:17.162Z,5.90
2018-02-14T00:29:19.667Z,5.30
2018-02-14T00:30:22.296Z,4.95
2018-02-14T00:31:24.866Z,6.25
2018-02-14T00:32:27.597Z,5.30
2018-02-14T00:33:30.128Z,5.65
2018-02-14T00:34:32.756Z,5.75
2018-02-14T00:35:36.042Z,5.30
2018-02-14T00:36:38.551Z,5.45
2018-02-14T00:37:41.054Z,5.85
2018-02-14T00:38:43.577Z,5.65
2018-02-14T00:39:46.092Z,6.70
2018-02-14T00:40:48.608Z,6.07
2018-02-14T00:41:51.881Z,6.37
2018-02-14T00:42:54.362Z,6.70
2018-02-14T00:43:57.626Z,5.65
2018-02-14T00:45:00.126Z,5.50
2018-02-14T00:46:03.379Z,6.12
2018-02-14T00:47:05.898Z,5.90
2018-02-14T00:48:08.393Z,5.53
2018-02-14T00:49:10.977Z,5.47
2018-02-14T00:50:14.130Z,6.03
2018-02-14T00:51:16.624Z,5.55
2018-02-14T00:52:19.114Z,5.53
2018-02-14T00:53:21.618Z,5.80
2018-02-14T00:54:24.925Z,6.40
2018-02-14T00:55:27.600Z,5.10
2018-02-14T00:56:30.282Z,7.25
2018-02-14T00:57:32.947Z,5.93
2018-02-14T00:58:35.518Z,6.00
2018-02-14T00:59:38.302Z,5.37
2018-02-14T01:00:41.011Z,5.75
2018-02-14T01:01:43.564Z,5.10
2018-02-14T01:02:46.173Z,5.68
2018-02-14T01:03:48.805Z,5.65
2018-02-14T01:04:51.490Z,5.10
2018-02-14T01:05:54.011Z,5.45
2018-02-14T01:06:57.285Z,4.75
2018-02-14T01:07:59.790Z,5.57
2018-02-14T01:09:02.364Z,5.50
2018-02-14T01:10:04.931Z,5.72
2018-02-14T01:11:07.526Z,6.05
2018-02-14T01:12:10.036Z,7.03
2018-02-14T01:13:12.531Z,5.55
2018-02-14T01:14:15.796Z,5.72
2018-02-14T01:15:18.598Z,5.50
2018-02-14T01:16:21.860Z,5.75
2018-02-14T01:17:24.367Z,5.95
2018-02-14T01:18:26.842Z,5.28
2018-02-14T01:19:29.341Z,5.40
2018-02-14T01:20:34.749Z,6.03
2018-02-14T01:21:37.244Z,6.40
2018-02-14T01:22:39.723Z,5.75
2018-02-14T01:23:42.317Z,5.30
2018-02-14T01:24:44.818Z,5.78
2018-02-14T01:25:48.125Z,5.62
2018-02-14T01:26:50.638Z,5.90
2018-02-14T01:27:53.143Z,6.10
2018-02-14T01:28:56.411Z,6.18
2018-02-14T01:29:58.949Z,5.95
2018-02-14T01:31:01.447Z,5.45
2018-02-14T01:32:03.973Z,5.70
2018-02-14T01:33:06.477Z,5.78
2018-02-14T01:34:09.010Z,5.97
2018-02-14T01:35:11.509Z,6.10
2018-02-14T01:36:14.035Z,6.45
2018-02-14T01:37:16.546Z,5.47
2018-02-14T01:38:19.180Z,6.12
2018-02-14T01:39:22.442Z,5.90
2018-02-14T01:40:24.942Z,6.65
2018-02-14T01:41:27.509Z,6.30
2018-02-14T01:42:30.001Z,6.93
2018-02-14T01:43:32.484Z,5.32
2018-02-14T01:44:34.973Z,5.87
2018-02-14T01:45:37.472Z,5.22
2018-02-14T01:46:40.815Z,5.80
2018-02-14T01:47:43.311Z,7.03
2018-02-14T01:48:45.820Z,5.93
2018-02-14T01:49:48.329Z,6.93
2018-02-14T01:50:50.966Z,5.93
2018-02-14T01:51:53.482Z,6.37
2018-02-14T01:52:55.973Z,6.40
2018-02-14T01:53:59.253Z,6.15
2018-02-14T01:55:01.749Z,6.25
2018-02-14T01:56:05.003Z,5.70
2018-02-14T01:57:07.623Z,6.43
2018-02-14T01:58:10.128Z,6.22
2018-02-14T01:59:12.629Z,7.25
2018-02-14T02:00:19.193Z,6.15
2018-02-14T02:01:21.687Z,5.68
2018-02-14T02:02:24.172Z,6.47
2018-02-14T02:03:27.482Z,5.22
2018-02-14T02:04:30.732Z,5.90
2018-02-14T02:05:33.212Z,5.50
2018-02-14T02:06:35.670Z,6.68
2018-02-14T02:07:38.179Z,6.78
2018-02-14T02:08:41.423Z,5.93
2018-02-14T02:09:43.942Z,6.57
2018-02-14T02:10:46.412Z,6.70
2018-02-14T02:11:49.642Z,5.93
2018-02-14T02:12:52.177Z,6.10
2018-02-14T02:13:54.672Z,6.10
2018-02-14T02:14:57.217Z,5.50
2018-02-14T02:15:59.746Z,7.07
2018-02-14T02:17:02.240Z,4.95
2018-02-14T02:18:05.548Z,5.90
2018-02-14T02:19:08.029Z,6.30
2018-02-14T02:20:10.517Z,6.85
2018-02-14T02:21:13.056Z,5.32
2018-02-14T02:22:15.531Z,5.30
2018-02-14T02:23:18.087Z,5.97
2018-02-14T02:24:21.328Z,6.10
2018-02-14T02:25:23.812Z,6.30
2018-02-14T02:26:26.288Z,6.72
2018-02-14T02:27:29.307Z,6.75
2018-02-14T02:28:33.294Z,6.10
2018-02-14T02:29:35.822Z,6.30
2018-02-14T02:30:40.761Z,5.78
2018-02-14T02:31:43.245Z,6.25
2018-02-14T02:32:45.767Z,5.68
2018-02-14T02:33:48.252Z,5.70
2018-02-14T02:34:50.736Z,5.75
2018-02-14T02:35:53.237Z,6.07
2018-02-14T02:36:55.726Z,5.00
2018-02-14T02:37:58.969Z,5.28
2018-02-14T02:39:01.486Z,5.82
2018-02-14T02:40:15.997Z,6.90
2018-02-14T02:41:19.254Z,5.53
2018-02-14T02:42:21.782Z,5.82
2018-02-14T02:43:25.910Z,5.85
2018-02-14T02:44:29.213Z,6.32
2018-02-14T02:45:31.706Z,6.37
2018-02-14T02:46:34.177Z,5.55
2018-02-14T02:47:36.660Z,5.70
2018-02-14T02:48:39.180Z,6.22
2018-02-14T02:49:42.423Z,7.00
2018-02-14T02:50:44.898Z,5.78
2018-02-14T02:51:47.385Z,6.50
2018-02-14T02:52:50.851Z,5.43
2018-02-14T02:53:53.361Z,6.07
2018-02-14T02:54:56.865Z,6.00
2018-02-14T02:55:59.345Z,5.45
2018-02-14T02:57:02.680Z,6.60
2018-02-14T02:58:05.160Z,5.93
2018-02-14T02:59:07.668Z,5.00
2018-02-14T03:00:13.794Z,6.25
2018-02-14T03:01:16.352Z,6.00
2018-02-14T03:02:18.835Z,6.00
2018-02-14T03:03:21.326Z,5.40
2018-02-14T03:04:24.601Z,6.12
2018-02-14T03:05:27.110Z,7.07
2018-02-14T03:06:29.585Z,6.12
2018-02-14T03:07:32.080Z,5.70
2018-02-14T03:08:34.554Z,5.80
2018-02-14T03:09:37.047Z,5.82
2018-02-14T03:10:39.525Z,6.65
2018-02-14T03:11:42.023Z,5.75
2018-02-14T03:12:44.586Z,6.15
2018-02-14T03:13:47.828Z,5.87
2018-02-14T03:14:50.337Z,6.15
2018-02-14T03:15:53.576Z,6.05
2018-02-14T03:16:56.053Z,6.12
2018-02-14T03:17:58.548Z,6.10
2018-02-14T03:19:01.072Z,5.60
2018-02-14T03:20:03.566Z,5.78
2018-02-14T03:21:06.056Z,6.85
2018-02-14T03:22:08.572Z,6.70
2018-02-14T03:23:11.047Z,6.45
2018-02-14T03:24:13.530Z,6.10
2018-02-14T03:25:16.098Z,7.20
2018-02-14T03:26:19.352Z,6.47
2018-02-14T03:27:22.594Z,6.20
2018-02-14T03:28:25.073Z,5.78
2018-02-14T03:29:27.557Z,5.95
2018-02-14T03:30:30.060Z,6.03
2018-02-14T03:31:33.321Z,6.37
2018-02-14T03:32:35.802Z,6.00
2018-02-14T03:33:38.340Z,5.85
2018-02-14T03:34:40.820Z,5.72
2018-02-14T03:35:43.312Z,5.90
2018-02-14T03:36:47.357Z,4.97
2018-02-14T03:37:50.273Z,5.75
2018-02-14T03:38:52.752Z,6.35
2018-02-14T03:39:55.247Z,6.30
2018-02-14T03:40:58.626Z,5.95
2018-02-14T03:42:01.129Z,6.12
2018-02-14T03:43:03.627Z,5.68
2018-02-14T03:44:06.109Z,5.70
2018-02-14T03:45:08.639Z,6.15
2018-02-14T03:46:11.135Z,5.68
2018-02-14T03:47:13.627Z,6.20
2018-02-14T03:48:16.124Z,5.65
2018-02-14T03:49:18.849Z,6.15
2018-02-14T03:50:21.371Z,6.90
2018-02-14T03:51:24.672Z,6.25
2018-02-14T03:52:27.905Z,6.68
2018-02-14T03:53:30.384Z,6.97
2018-02-14T03:54:32.857Z,6.70
2018-02-14T03:55:35.388Z,5.70
2018-02-14T03:56:37.894Z,5.85
2018-02-14T03:57:40.391Z,6.15
2018-02-14T03:58:42.888Z,6.50
2018-02-14T03:59:46.177Z,6.03
2018-02-14T04:00:50.111Z,6.32
2018-02-14T04:01:52.664Z,6.35
2018-02-14T04:02:55.140Z,7.05
2018-02-14T04:03:57.634Z,6.80
2018-02-14T04:05:00.179Z,6.07
2018-02-14T04:06:02.657Z,7.07
2018-02-14T04:07:05.220Z,6.80
2018-02-14T04:08:07.731Z,6.95
2018-02-14T04:09:10.243Z,6.15
2018-02-14T04:10:13.514Z,7.00
2018-02-14T04:11:17.572Z,6.25
2018-02-14T04:12:20.884Z,5.93
2018-02-14T04:13:23.351Z,7.15
2018-02-14T04:14:25.884Z,6.25
2018-02-14T04:15:28.368Z,6.32
2018-02-14T04:16:30.847Z,8.05
2018-02-14T04:17:33.334Z,6.55
2018-02-14T04:18:35.831Z,6.05
2018-02-14T04:19:38.306Z,6.47
2018-02-14T04:20:40.792Z,7.43
2018-02-14T04:21:44.101Z,7.32
2018-02-14T04:22:46.619Z,7.03
2018-02-14T04:23:49.112Z,7.25
2018-02-14T04:24:53.191Z,6.57
2018-02-14T04:25:55.683Z,6.62
2018-02-14T04:26:58.187Z,6.15
2018-02-14T04:28:00.684Z,7.45
2018-02-14T04:29:03.177Z,7.50
2018-02-14T04:30:05.675Z,6.45
2018-02-14T04:31:08.193Z,6.15
2018-02-14T04:32:10.689Z,7.30
2018-02-14T04:33:13.301Z,7.22
2018-02-14T04:34:16.549Z,7.68
2018-02-14T04:35:19.023Z,7.53
2018-02-14T04:36:21.516Z,7.80
2018-02-14T04:37:24.833Z,7.22
2018-02-14T04:38:27.389Z,7.40
2018-02-14T04:39:30.671Z,7.10
2018-02-14T04:40:34.069Z,6.72
2018-02-14T04:41:37.324Z,6.87
2018-02-14T04:42:39.812Z,7.37
2018-02-14T04:43:42.310Z,7.10
2018-02-14T04:44:45.568Z,7.60
2018-02-14T04:45:48.038Z,7.45
2018-02-14T04:46:50.519Z,7.47
2018-02-14T04:47:53.764Z,6.85
2018-02-14T04:48:56.252Z,7.28
2018-02-14T04:49:58.734Z,7.15
2018-02-14T04:51:01.676Z,7.87
2018-02-14T04:52:04.148Z,7.60
2018-02-14T04:53:06.615Z,6.97
2018-02-14T04:54:09.124Z,7.12
2018-02-14T04:55:11.596Z,8.15
2018-02-14T04:56:14.082Z,7.00
2018-02-14T04:57:17.340Z,7.25
2018-02-14T04:58:19.828Z,7.18
2018-02-14T04:59:22.348Z,6.20
2018-02-14T05:00:24.859Z,7.15
2018-02-14T05:01:27.333Z,6.95
2018-02-14T05:02:29.821Z,6.75
2018-02-14T05:03:33.075Z,7.65
2018-02-14T05:04:35.564Z,7.62
2018-02-14T05:05:38.065Z,7.65
2018-02-14T05:06:41.316Z,8.63
2018-02-14T05:07:43.839Z,7.25
2018-02-14T05:08:46.343Z,6.87
2018-02-14T05:09:48.834Z,7.10
2018-02-14T05:10:51.642Z,7.30
2018-02-14T05:11:54.871Z,7.22
2018-02-14T05:12:58.164Z,6.80
2018-02-14T05:14:00.644Z,6.97
2018-02-14T05:15:03.974Z,6.30
2018-02-14T05:16:07.300Z,6.28
2018-02-14T05:17:09.793Z,7.65
2018-02-14T05:18:12.299Z,7.20
2018-02-14T05:19:15.649Z,7.50
2018-02-14T05:20:18.198Z,7.28
2018-02-14T05:21:20.724Z,7.75
2018-02-14T05:22:23.193Z,7.30
2018-02-14T05:23:25.681Z,8.52
2018-02-14T05:24:28.922Z,7.75
2018-02-14T05:25:32.163Z,7.70
2018-02-14T05:26:34.755Z,6.35
2018-02-14T05:27:37.268Z,6.68
2018-02-14T05:28:39.748Z,8.30
2018-02-14T05:29:42.321Z,7.18
2018-02-14T05:30:44.815Z,9.30
2018-02-14T05:31:47.448Z,8.25
2018-02-14T05:32:49.951Z,7.90
2018-02-14T05:33:53.289Z,7.93
2018-02-14T05:34:55.791Z,7.57
2018-02-14T05:35:58.406Z,7.05
2018-02-14T05:37:00.924Z,7.45
2018-02-14T05:38:03.452Z,7.55
2018-02-14T05:39:05.945Z,7.43
2018-02-14T05:40:08.417Z,7.40
2018-02-14T05:41:10.913Z,8.05
2018-02-14T05:42:13.391Z,7.00
2018-02-14T05:43:15.931Z,7.65
2018-02-14T05:44:18.408Z,7.78
2018-02-14T05:45:20.903Z,6.70
2018-02-14T05:46:23.397Z,7.68
2018-02-14T05:47:26.644Z,7.93
2018-02-14T05:48:29.171Z,8.23
2018-02-14T05:49:31.665Z,6.97
2018-02-14T05:50:34.170Z,8.15
2018-02-14T05:51:36.716Z,6.18
2018-02-14T05:52:39.218Z,6.30
2018-02-14T05:53:41.698Z,6.82
2018-02-14T05:54:44.961Z,7.55
2018-02-14T05:55:47.435Z,6.85
2018-02-14T05:56:49.925Z,7.10
2018-02-14T05:57:53.240Z,6.65
2018-02-14T05:58:55.725Z,8.27
2018-02-14T05:59:58.212Z,8.25
2018-02-14T06:01:00.704Z,7.30
2018-02-14T06:02:03.196Z,7.30
2018-02-14T06:03:06.451Z,7.40
2018-02-14T06:04:08.943Z,8.65
2018-02-14T06:05:12.265Z,8.43
2018-02-14T06:06:15.511Z,7.68
2018-02-14T06:07:18.082Z,8.20
2018-02-14T06:08:20.567Z,8.32
2018-02-14T06:09:23.066Z,9.05
2018-02-14T06:10:25.544Z,7.47
2018-02-14T06:11:28.793Z,7.85
2018-02-14T06:12:31.275Z,7.95
2018-02-14T06:13:34.872Z,7.95
2018-02-14T06:14:37.354Z,7.62
2018-02-14T06:15:40.592Z,7.55
2018-02-14T06:16:43.068Z,7.20
2018-02-14T06:17:46.514Z,8.93
2018-02-14T06:18:49.006Z,8.00
2018-02-14T06:19:51.565Z,8.63
2018-02-14T06:20:54.036Z,7.82
2018-02-14T06:21:56.914Z,9.15
2018-02-14T06:22:59.396Z,7.45
2018-02-14T06:24:01.876Z,8.90
2018-02-14T06:25:04.441Z,9.25
2018-02-14T06:26:06.929Z,8.70
2018-02-14T06:27:09.489Z,8.68
2018-02-14T06:28:12.100Z,8.75
2018-02-14T06:29:14.631Z,8.27
2018-02-14T06:30:17.294Z,8.95
2018-02-14T06:31:19.859Z,8.63
2018-02-14T06:32:23.100Z,8.75
2018-02-14T06:33:26.329Z,8.20
2018-02-14T06:34:28.817Z,8.50
2018-02-14T06:35:31.305Z,7.78
2018-02-14T06:36:33.789Z,8.20
2018-02-14T06:37:36.282Z,8.73
2018-02-14T06:38:38.775Z,8.38
2018-02-14T06:39:41.274Z,7.72
2018-02-14T06:40:43.777Z,8.27
2018-02-14T06:41:46.273Z,7.60
2018-02-14T06:42:48.757Z,8.20
2018-02-14T06:43:52.014Z,8.20
2018-02-14T06:44:54.495Z,8.25
2018-02-14T06:45:56.977Z,7.82
2018-02-14T06:47:00.222Z,9.02
2018-02-14T06:48:02.718Z,9.23
2018-02-14T06:49:05.232Z,9.77
2018-02-14T06:50:07.728Z,10.50
2018-02-14T06:51:11.092Z,10.50
2018-02-14T06:52:13.639Z,10.68
2018-02-14T06:53:16.882Z,11.38
2018-02-14T06:54:19.932Z,11.80
2018-02-14T06:55:22.422Z,12.37
2018-02-14T06:56:24.912Z,13.10
2018-02-14T06:57:27.416Z,12.80
2018-02-14T06:58:29.898Z,14.60
2018-02-14T07:12:32.460Z,11.02
2018-02-14T07:13:34.956Z,13.45
2018-02-14T07:14:37.454Z,15.38
2018-02-14T07:15:41.768Z,14.55
2018-02-14T07:16:45.034Z,15.60
2018-02-14T07:17:48.139Z,15.55
2018-02-14T07:18:51.399Z,14.93
2018-02-14T07:19:53.904Z,12.95
2018-02-14T07:20:57.269Z,15.05
2018-02-14T07:21:59.790Z,14.32
2018-02-14T07:23:02.568Z,14.50
2018-02-14T07:24:05.052Z,14.63
2018-02-14T07:25:08.458Z,13.68
2018-02-14T07:26:11.025Z,14.27
2018-02-14T07:27:13.579Z,11.75
2018-02-14T07:28:16.874Z,12.25
2018-02-14T07:29:19.755Z,11.93
2018-02-14T07:30:23.947Z,10.85
2018-02-14T07:31:26.450Z,10.55
2018-02-14T07:32:29.696Z,10.82
2018-02-14T07:33:32.984Z,10.43
2018-02-14T07:34:36.280Z,10.73
2018-02-14T07:35:38.779Z,10.98
2018-02-14T07:36:42.819Z,11.25
2018-02-14T07:37:45.996Z,9.90
2018-02-14T07:48:33.511Z,7.82
2018-02-14T07:49:35.994Z,8.82
2018-02-14T07:50:38.523Z,8.57
2018-02-14T07:51:41.069Z,9.10
2018-02-14T07:52:43.556Z,8.68
2018-02-14T07:53:46.150Z,8.43
2018-02-14T07:54:49.387Z,9.35
2018-02-14T07:55:52.601Z,8.57
2018-02-14T07:56:55.120Z,7.80
2018-02-14T07:57:59.554Z,8.63
2018-02-14T07:59:02.031Z,8.02
2018-02-14T08:00:04.516Z,8.70
2018-02-14T08:01:07.020Z,8.48
2018-02-14T08:02:09.550Z,8.30
2018-02-14T08:03:12.896Z,8.00
2018-02-14T08:04:15.385Z,8.95
2018-02-14T08:05:17.868Z,8.98
2018-02-14T08:06:20.359Z,7.90
2018-02-14T08:07:22.892Z,7.80
2018-02-14T08:08:25.425Z,9.00
2018-02-14T08:09:28.673Z,8.93
2018-02-14T08:10:31.153Z,9.20
2018-02-14T08:11:33.660Z,8.85
2018-02-14T08:12:36.912Z,7.65
2018-02-14T08:13:40.883Z,9.07
2018-02-14T08:14:43.409Z,7.25
2018-02-14T08:15:45.877Z,7.75
2018-02-14T08:16:49.135Z,7.75
2018-02-14T08:17:51.627Z,8.70
2018-02-14T08:18:54.157Z,7.62
2018-02-14T08:19:57.421Z,8.25
2018-02-14T08:21:00.661Z,7.82
2018-02-14T08:22:03.153Z,8.00
2018-02-14T08:23:05.649Z,7.65
2018-02-14T08:24:08.149Z,7.68
2018-02-14T08:25:10.657Z,7.60
2018-02-14T08:26:13.677Z,7.30
2018-02-14T08:27:16.167Z,7.78
2018-02-14T08:28:19.390Z,7.10
2018-02-14T08:29:21.899Z,6.70
2018-02-14T08:30:25.147Z,7.53
2018-02-14T08:31:27.628Z,7.78
2018-02-14T08:32:30.124Z,8.02
2018-02-14T08:33:33.395Z,7.75
2018-02-14T08:34:36.656Z,8.05
2018-02-14T08:35:39.139Z,6.87
2018-02-14T08:36:41.615Z,6.40
2018-02-14T08:37:44.096Z,7.80
2018-02-14T08:38:47.372Z,7.40
2018-02-14T08:39:49.879Z,6.70
2018-02-14T08:40:52.360Z,7.30
2018-02-14T08:41:55.664Z,7.25
2018-02-14T08:42:58.153Z,7.95
2018-02-14T08:44:01.106Z,7.40
2018-02-14T08:45:03.630Z,7.20
2018-02-14T08:46:06.106Z,7.00
2018-02-14T08:47:09.472Z,6.93
2018-02-14T08:48:12.052Z,7.65
2018-02-14T08:49:14.548Z,7.30
2018-02-14T08:50:18.616Z,8.05
2018-02-14T08:51:21.233Z,7.00
2018-02-14T08:52:24.531Z,6.72
2018-02-14T08:53:27.921Z,7.95
2018-02-14T08:54:31.228Z,7.30
2018-02-14T08:55:33.697Z,6.60
2018-02-14T08:56:36.177Z,7.82
2018-02-14T08:57:38.651Z,7.80
2018-02-14T08:58:41.121Z,7.25
2018-02-14T08:59:43.626Z,6.75
2018-02-14T09:00:48.944Z,6.93
2018-02-14T09:01:51.466Z,6.75
2018-02-14T09:02:54.712Z,6.93
2018-02-14T09:03:57.180Z,6.05
2018-02-14T09:04:59.679Z,6.35
2018-02-14T09:06:02.180Z,6.15
2018-02-14T09:07:04.680Z,6.43
2018-02-14T09:08:07.175Z,6.10
2018-02-14T09:09:09.660Z,6.35
2018-02-14T09:10:12.943Z,6.55
2018-02-14T09:11:15.456Z,6.20
2018-02-14T09:12:17.983Z,6.20
2018-02-14T09:13:20.998Z,7.15
2018-02-14T09:14:24.508Z,7.75
2018-02-14T09:15:26.988Z,6.40
2018-02-14T09:16:30.252Z,7.60
2018-02-14T09:17:32.753Z,8.95
2018-02-14T09:18:35.296Z,7.80
2018-02-14T09:19:37.789Z,7.97
2018-02-14T09:20:40.311Z,8.20
2018-02-14T09:21:44.673Z,6.93
2018-02-14T09:22:47.876Z,8.05
2018-02-14T09:23:50.395Z,6.87
2018-02-14T09:24:52.843Z,7.12
2018-02-14T09:25:56.317Z,6.20
2018-02-14T09:26:58.815Z,7.65
2018-02-14T09:28:01.313Z,6.97
2018-02-14T09:29:03.804Z,6.60
2018-02-14T09:30:06.273Z,7.90
2018-02-14T09:31:08.753Z,8.30
2018-02-14T09:32:11.269Z,7.35
2018-02-14T09:33:13.822Z,6.97
2018-02-14T09:34:16.304Z,6.87
2018-02-14T09:35:18.836Z,6.82
2018-02-14T09:36:23.944Z,8.55
2018-02-14T09:37:26.442Z,6.07
2018-02-14T09:38:29.973Z,6.57
2018-02-14T09:39:32.468Z,6.72
2018-02-14T09:40:34.972Z,6.55
2018-02-14T09:41:37.452Z,6.93
2018-02-14T09:42:39.949Z,6.62
2018-02-14T09:43:42.431Z,6.37
2018-02-14T09:44:44.938Z,6.15
2018-02-14T09:45:47.417Z,6.82
2018-02-14T09:46:50.686Z,6.35
2018-02-14T09:47:53.185Z,7.22
2018-02-14T09:48:55.802Z,7.22
2018-02-14T09:49:58.344Z,6.70
2018-02-14T09:51:00.849Z,6.55
2018-02-14T09:52:03.364Z,6.40
2018-02-14T09:53:05.868Z,6.55
2018-02-14T09:54:08.879Z,6.43
2018-02-14T09:55:11.416Z,6.50
2018-02-14T09:56:15.154Z,7.30
2018-02-14T09:57:18.468Z,8.02
2018-02-14T09:58:20.993Z,7.72
2018-02-14T09:59:23.501Z,5.65
2018-02-14T10:00:26.692Z,6.75
2018-02-14T10:01:29.184Z,6.45
2018-02-14T10:02:31.671Z,6.90
2018-02-14T10:03:34.179Z,6.47
2018-02-14T10:04:37.413Z,7.45
2018-02-14T10:05:39.905Z,6.90
2018-02-14T10:06:43.215Z,7.60
2018-02-14T10:07:46.470Z,7.50
2018-02-14T10:08:48.937Z,7.60
2018-02-14T10:09:51.413Z,6.75
2018-02-14T10:10:53.910Z,7.07
2018-02-14T10:11:56.438Z,7.43
2018-02-14T10:12:59.128Z,6.68
2018-02-14T10:14:01.650Z,6.65
2018-02-14T10:15:05.631Z,6.22
2018-02-14T10:16:08.144Z,6.05
2018-02-14T10:17:11.640Z,6.50
2018-02-14T10:18:14.161Z,6.95
2018-02-14T10:19:16.652Z,6.80
2018-02-14T10:20:20.362Z,6.85
2018-02-14T10:21:23.608Z,6.15
2018-02-14T10:22:26.129Z,6.62
2018-02-14T10:23:28.616Z,6.72
2018-02-14T10:24:31.114Z,5.45
2018-02-14T10:25:33.582Z,6.80
2018-02-14T10:26:36.075Z,6.70
2018-02-14T10:27:38.558Z,7.30
2018-02-14T10:28:41.808Z,7.20
2018-02-14T10:29:44.288Z,7.05
2018-02-14T10:30:46.759Z,6.37
2018-02-14T10:31:49.272Z,7.45
2018-02-14T10:32:52.540Z,6.65
2018-02-14T10:33:55.022Z,6.82
2018-02-14T10:34:58.274Z,6.97
2018-02-14T10:36:00.773Z,6.80
2018-02-14T10:37:04.021Z,6.20
2018-02-14T10:38:06.504Z,5.95
2018-02-14T10:39:10.345Z,6.82
2018-02-14T10:40:12.993Z,6.68
2018-02-14T10:41:15.464Z,6.53
2018-02-14T10:42:18.012Z,7.03
2018-02-14T10:43:21.370Z,6.00
2018-02-14T10:44:23.905Z,6.70
2018-02-14T10:45:26.411Z,6.00
2018-02-14T10:46:28.877Z,5.50
2018-02-14T10:47:31.368Z,5.07
2018-02-14T10:48:34.202Z,6.07
2018-02-14T10:49:37.439Z,5.60
2018-02-14T10:50:39.921Z,6.30
2018-02-14T10:51:42.412Z,5.97
2018-02-14T10:52:44.891Z,6.28
2018-02-14T10:53:47.378Z,6.30
2018-02-14T10:54:50.633Z,6.22
2018-02-14T10:55:53.114Z,6.32
2018-02-14T10:56:55.597Z,6.40
2018-02-14T10:57:58.108Z,6.00
2018-02-14T10:59:00.582Z,5.95
2018-02-14T11:00:03.069Z,7.55
2018-02-14T11:01:05.561Z,6.70
2018-02-14T11:02:10.283Z,6.75
2018-02-14T11:03:18.550Z,6.95
2018-02-14T11:04:22.823Z,5.87
2018-02-14T11:05:31.740Z,5.35
2018-02-14T11:06:36.241Z,5.60
2018-02-14T11:07:38.738Z,5.55
2018-02-14T11:08:41.992Z,5.72
2018-02-14T11:09:44.491Z,5.40
2018-02-14T11:10:46.984Z,6.07
2018-02-14T11:11:49.444Z,6.55
2018-02-14T11:12:52.701Z,5.07
2018-02-14T11:13:55.175Z,5.72
2018-02-14T11:14:57.660Z,6.35
2018-02-14T11:16:00.164Z,6.30
2018-02-14T11:17:02.636Z,5.45
2018-02-14T11:18:05.171Z,4.65
2018-02-14T11:19:07.665Z,5.28
2018-02-14T11:20:10.209Z,4.80
2018-02-14T11:21:13.032Z,4.68
2018-02-14T11:22:15.513Z,5.15
2018-02-14T11:23:17.989Z,4.65
2018-02-14T11:24:20.506Z,5.62
2018-02-14T11:25:23.004Z,5.60
2018-02-14T11:26:25.471Z,5.28
2018-02-14T11:27:27.979Z,4.72
2018-02-14T11:28:30.482Z,5.18
2018-02-14T11:29:32.968Z,5.40
2018-02-14T11:30:36.235Z,5.25
2018-02-14T11:31:38.730Z,4.35
2018-02-14T11:32:41.995Z,4.30
2018-02-14T11:33:45.203Z,5.12
2018-02-14T11:34:48.446Z,5.40
2018-02-14T11:35:50.935Z,5.25
2018-02-14T11:36:53.414Z,5.07
2018-02-14T11:37:56.663Z,4.47
2018-02-14T11:38:59.151Z,4.78
2018-02-14T11:40:01.655Z,6.18
2018-02-14T11:41:04.152Z,5.30
2018-02-14T11:42:06.639Z,5.65
2018-02-14T11:43:09.123Z,5.05
2018-02-14T11:44:11.783Z,4.30
2018-02-14T11:45:14.328Z,5.80
2018-02-14T11:46:17.750Z,8.05
2018-02-14T11:47:20.284Z,7.47
2018-02-14T11:48:22.740Z,9.40
2018-02-14T11:49:26.008Z,5.47
2018-02-14T11:50:28.519Z,4.97
2018-02-14T11:51:31.026Z,5.65
2018-02-14T11:52:33.525Z,5.55
2018-02-14T11:53:36.028Z,5.30
2018-02-14T11:54:38.558Z,5.25
2018-02-14T11:55:41.032Z,5.05
2018-02-14T11:56:43.506Z,5.12
2018-02-14T12:10:46.023Z,4.10
2018-02-14T12:11:48.496Z,4.57
2018-02-14T12:12:51.781Z,4.78
2018-02-14T12:13:54.271Z,4.47
2018-02-14T12:14:56.746Z,4.60
2018-02-14T12:16:00.020Z,5.43
2018-02-14T12:17:02.545Z,4.25
2018-02-14T12:18:05.025Z,4.32
2018-02-14T12:19:07.521Z,4.72
2018-02-14T12:20:10.106Z,4.45
2018-02-14T12:21:13.512Z,4.10
2018-02-14T12:22:16.785Z,5.25
2018-02-14T12:23:19.256Z,4.97
2018-02-14T12:24:21.735Z,5.03
2018-02-14T12:25:24.445Z,4.60
2018-02-14T12:26:26.937Z,4.80
2018-02-14T12:27:29.592Z,4.20
2018-02-14T12:28:32.133Z,5.05
2018-02-14T12:29:36.171Z,4.60
2018-02-14T12:30:38.666Z,3.80
2018-02-14T12:31:42.037Z,4.55
2018-02-14T12:32:44.536Z,4.87
2018-02-14T12:33:47.000Z,4.37
2018-02-14T12:34:49.931Z,4.28
2018-02-14T12:35:53.191Z,4.75
2018-02-14T12:36:55.884Z,5.00
2018-02-14T12:37:59.134Z,4.72
2018-02-14T12:39:01.602Z,4.40
2018-02-14T12:40:04.094Z,4.15
2018-02-14T12:41:07.089Z,4.32
2018-02-14T12:42:09.648Z,4.87
2018-02-14T12:43:12.475Z,5.70
2018-02-14T12:44:14.948Z,4.55
2018-02-14T12:45:17.437Z,4.55
2018-02-14T12:46:19.912Z,5.28
2018-02-14T12:47:22.418Z,4.50
2018-02-14T12:48:25.805Z,4.93
2018-02-14T12:49:28.310Z,4.87
2018-02-14T12:50:30.838Z,4.93
2018-02-14T12:51:33.313Z,5.05
2018-02-14T12:52:35.808Z,4.72
2018-02-14T12:53:38.300Z,4.10
2018-02-14T12:54:40.796Z,4.97
2018-02-14T12:55:43.549Z,4.43
2018-02-14T12:56:46.043Z,4.90
2018-02-14T12:57:48.541Z,4.32
2018-02-14T12:58:51.039Z,5.07
2018-02-14T12:59:54.348Z,4.53
2018-02-14T13:00:56.862Z,4.10
2018-02-14T13:02:00.166Z,4.60
2018-02-14T13:03:02.656Z,4.28
2018-02-14T13:04:05.436Z,4.43
2018-02-14T13:05:07.928Z,4.90
2018-02-14T13:06:10.463Z,4.37
2018-02-14T13:07:14.689Z,4.20
2018-02-14T13:08:17.948Z,5.40
2018-02-14T13:09:20.442Z,4.65
2018-02-14T13:10:22.910Z,4.85
2018-02-14T13:11:26.165Z,4.72
2018-02-14T13:12:28.637Z,4.03
2018-02-14T13:13:31.151Z,4.25
2018-02-14T13:14:34.413Z,4.40
2018-02-14T13:15:37.673Z,4.07
2018-02-14T13:16:40.164Z,4.45
2018-02-14T13:17:42.667Z,5.07
2018-02-14T13:18:45.930Z,3.90
2018-02-14T13:19:48.867Z,3.95
2018-02-14T13:20:51.378Z,3.92
2018-02-14T13:21:53.863Z,4.68
2018-02-14T13:22:57.107Z,3.60
2018-02-14T13:23:59.615Z,4.18
2018-02-14T13:25:02.156Z,4.68
2018-02-14T13:26:04.685Z,4.20
2018-02-14T13:27:07.154Z,4.30
2018-02-14T13:28:09.767Z,3.80
2018-02-14T13:29:13.108Z,4.37
2018-02-14T13:30:16.382Z,4.07
2018-02-14T13:31:19.350Z,3.90
2018-02-14T13:32:21.864Z,4.53
2018-02-14T13:33:24.357Z,4.15
2018-02-14T13:34:26.858Z,5.10
2018-02-14T13:35:29.373Z,3.53
2018-02-14T13:36:32.602Z,4.37
2018-02-14T13:37:35.141Z,4.30
2018-02-14T13:38:37.680Z,4.97
2018-02-14T13:39:40.213Z,4.50
2018-02-14T13:40:42.689Z,3.47
2018-02-14T13:41:45.160Z,3.45
2018-02-14T13:42:47.656Z,3.90
2018-02-14T13:43:50.151Z,4.45
2018-02-14T13:44:52.623Z,4.07
2018-02-14T13:45:55.112Z,3.47
2018-02-14T13:46:57.612Z,3.72
2018-02-14T13:48:00.114Z,3.95
2018-02-14T13:49:02.593Z,4.32
2018-02-14T13:50:05.907Z,4.35
2018-02-14T13:51:08.360Z,2.78
2018-02-14T13:52:12.689Z,3.58
2018-02-14T13:53:15.177Z,3.33
2018-02-14T13:54:17.686Z,3.40
2018-02-14T13:55:22.160Z,3.72
2018-02-14T13:56:24.678Z,3.87
2018-02-14T13:57:27.150Z,4.00
2018-02-14T13:58:31.364Z,3.95
2018-02-14T13:59:34.602Z,3.50
2018-02-14T14:00:37.092Z,3.55
2018-02-14T14:01:39.591Z,3.60
2018-02-14T14:02:42.094Z,4.00
2018-02-14T14:03:45.345Z,4.10
2018-02-14T14:04:47.843Z,3.90
2018-02-14T14:05:51.110Z,3.95
2018-02-14T14:06:53.577Z,3.62
2018-02-14T14:07:56.075Z,3.55
2018-02-14T14:08:58.579Z,4.72
2018-02-14T14:10:01.081Z,3.80
2018-02-14T14:11:03.681Z,3.40
2018-02-14T14:12:06.160Z,4.10
2018-02-14T14:13:09.440Z,4.20
2018-02-14T14:14:14.878Z,3.58
2018-02-14T14:15:18.120Z,3.30
2018-02-14T14:16:20.637Z,3.70
2018-02-14T14:17:24.167Z,3.28
2018-02-14T14:18:27.448Z,3.80
2018-02-14T14:19:29.926Z,3.90
2018-02-14T14:20:32.419Z,2.87
2018-02-14T14:21:34.981Z,3.70
2018-02-14T14:22:37.507Z,3.42
2018-02-14T14:23:40.517Z,3.70
2018-02-14T14:24:43.005Z,3.22
2018-02-14T14:25:45.509Z,5.05
2018-02-14T14:26:48.730Z,3.08
2018-02-14T14:27:51.221Z,2.95
2018-02-14T14:28:54.432Z,2.75
2018-02-14T14:29:56.920Z,3.83